Time;durP1;ratioP1;P1;durP2;ratioP2;P2;SDS_P1;SDS_P2;PMS_P1;PMS_P2;Temp;Humidity;BMP_temperature;BMP_pressure;BME280_temperature;BME280_humidity;BME280_pressure;Samples;Min_cycle;Max_cycle;Signal;HPM_P1;HPM_P2
2023/08/09 00:00:00;;;;;;;1.60;1.50;;;;;;;14.26;100.00;99159.08;109460;1253;67530;-66
2023/08/09 00:02:27;;;;;;;2.20;1.70;;;;;;;14.20;100.00;99158.73;109511;1253;72675;-67
2023/08/09 00:04:54;;;;;;;2.10;1.60;;;;;;;14.17;100.00;99157.36;109510;1253;58726;-66
2023/08/09 00:07:21;;;;;;;2.70;1.70;;;;;;;14.14;100.00;99161.84;109525;1253;59191;-65
2023/08/09 00:09:49;;;;;;;2.50;1.50;;;;;;;14.09;100.00;99163.55;109525;1252;74078;-66
2023/08/09 00:12:16;;;;;;;1.40;1.20;;;;;;;14.04;100.00;99162.21;109466;1253;67844;-66
2023/08/09 00:14:44;;;;;;;1.90;1.30;;;;;;;14.01;100.00;99161.80;109499;1254;73131;-66
2023/08/09 00:17:11;;;;;;;3.50;1.40;;;;;;;13.98;100.00;99167.01;109467;1253;61738;-66
2023/08/09 00:19:38;;;;;;;2.20;1.60;;;;;;;13.94;100.00;99166.91;109503;1252;60134;-66
2023/08/09 00:22:06;;;;;;;1.60;1.50;;;;;;;13.92;100.00;99165.21;109493;1253;73886;-66
2023/08/09 00:24:34;;;;;;;4.70;1.80;;;;;;;13.92;100.00;99167.84;109536;1254;66287;-66
2023/08/09 00:27:01;;;;;;;3.60;1.70;;;;;;;13.91;100.00;99171.63;109476;1252;72641;-66
2023/08/09 00:29:29;;;;;;;3.70;1.80;;;;;;;13.93;100.00;99181.02;109569;1253;60389;-66
2023/08/09 00:31:57;;;;;;;2.20;1.40;;;;;;;13.95;100.00;99178.29;109555;1253;60014;-66
2023/08/09 00:34:24;;;;;;;1.50;1.40;;;;;;;13.96;100.00;99186.66;109552;1252;72712;-66
2023/08/09 00:36:51;;;;;;;2.00;1.80;;;;;;;13.98;100.00;99181.78;109464;1254;70020;-66
2023/08/09 00:39:19;;;;;;;2.40;1.60;;;;;;;13.99;100.00;99185.48;109509;1254;71143;-66
2023/08/09 00:41:46;;;;;;;1.90;1.20;;;;;;;14.00;100.00;99188.28;109288;1253;58813;-66
2023/08/09 00:44:14;;;;;;;2.70;1.70;;;;;;;13.99;100.00;99189.11;109565;1252;59967;-66
2023/08/09 00:46:41;;;;;;;2.50;1.70;;;;;;;13.98;100.00;99193.34;109482;1253;72632;-66
2023/08/09 00:49:09;;;;;;;2.10;1.90;;;;;;;13.97;100.00;99193.02;109169;1252;67875;-65
2023/08/09 00:51:36;;;;;;;1.30;1.20;;;;;;;13.94;100.00;99198.08;109189;1254;72625;-66
2023/08/09 00:54:04;;;;;;;1.90;1.40;;;;;;;13.94;100.00;99201.27;109326;1254;61649;-65
2023/08/09 00:56:31;;;;;;;3.20;1.60;;;;;;;13.93;100.00;99205.11;109336;1252;59638;-66
2023/08/09 00:58:58;;;;;;;2.10;1.90;;;;;;;13.92;100.00;99201.67;109452;1253;72822;-66
2023/08/09 01:01:26;;;;;;;2.30;1.70;;;;;;;13.92;100.00;99205.58;109391;1254;67546;-66
2023/08/09 01:03:55;;;;;;;7.50;1.50;;;;;;;13.91;100.00;99197.36;109311;1254;72689;-66
2023/08/09 01:06:37;;;;;;;1.80;1.70;;;;;;;13.89;100.00;99197.16;109429;1254;61734;-66
2023/08/09 01:09:25;;;;;;;4.00;2.10;;;;;;;13.87;100.00;99196.45;109389;1253;60035;-66
2023/08/09 01:11:54;;;;;;;1.70;1.60;;;;;;;13.84;100.00;99196.02;109368;1254;73913;-66
2023/08/09 01:14:22;;;;;;;2.00;1.50;;;;;;;13.83;100.00;99196.64;109442;1254;67876;-66
2023/08/09 01:16:51;;;;;;;3.00;1.40;;;;;;;13.82;100.00;99196.43;109346;1254;71276;-66
2023/08/09 01:19:29;;;;;;;2.50;1.70;;;;;;;13.80;100.00;99199.12;109357;1253;58779;-66
2023/08/09 01:21:57;;;;;;;1.70;1.60;;;;;;;13.78;100.00;99202.98;109420;1253;58802;-66
2023/08/09 01:24:24;;;;;;;2.00;1.60;;;;;;;13.74;100.00;99203.29;109550;1252;72668;-66
2023/08/09 01:26:51;;;;;;;2.20;1.80;;;;;;;13.72;100.00;99206.98;109117;1254;66847;-67
2023/08/09 01:29:19;;;;;;;1.40;1.30;;;;;;;13.69;100.00;99210.38;109367;1252;71157;-66
2023/08/09 01:31:47;;;;;;;3.00;1.40;;;;;;;13.66;100.00;99212.41;109451;1255;61894;-66
2023/08/09 01:34:15;;;;;;;1.80;1.50;;;;;;;13.59;100.00;99210.48;109482;1253;60019;-67
2023/08/09 01:36:45;;;;;;;1.50;1.40;;;;;;;13.53;100.00;99213.80;109469;1253;72005;-66
2023/08/09 01:39:16;;;;;;;2.00;1.70;;;;;;;13.45;100.00;99212.02;109357;1254;67568;-66
2023/08/09 01:41:43;;;;;;;1.80;1.30;;;;;;;13.34;100.00;99216.42;109313;1253;72678;-66
2023/08/09 01:44:11;;;;;;;1.80;1.60;;;;;;;13.24;100.00;99213.30;109171;1260;59740;-66
2023/08/09 01:46:38;;;;;;;3.10;1.60;;;;;;;13.15;100.00;99213.89;109174;1254;60045;-66
2023/08/09 01:49:14;;;;;;;2.40;1.80;;;;;;;13.08;100.00;99218.19;109301;1253;74088;-66
2023/08/09 01:51:41;;;;;;;2.70;1.40;;;;;;;13.03;100.00;99225.14;109461;1254;66329;-65
2023/08/09 01:54:08;;;;;;;2.30;1.70;;;;;;;13.00;100.00;99225.84;109506;1254;72971;-66
2023/08/09 01:56:36;;;;;;;1.40;1.30;;;;;;;12.96;100.00;99226.88;109507;1254;61831;-66
2023/08/09 01:59:05;;;;;;;1.90;1.80;;;;;;;12.95;100.00;99230.78;109487;1253;60057;-66
2023/08/09 02:01:33;;;;;;;5.40;2.20;;;;;;;12.96;100.00;99228.85;109517;1254;73038;-66
2023/08/09 02:04:03;;;;;;;2.80;1.50;;;;;;;12.98;100.00;99233.06;109505;1252;67923;-66
2023/08/09 02:06:34;;;;;;;2.00;1.80;;;;;;;13.00;100.00;99236.90;109377;1254;73116;-66
2023/08/09 02:09:01;;;;;;;2.70;1.70;;;;;;;13.04;100.00;99237.52;109519;1254;60049;-66
2023/08/09 02:11:28;;;;;;;4.80;1.70;;;;;;;13.05;100.00;99234.73;109487;1254;60022;-66
2023/08/09 02:13:56;;;;;;;2.70;1.70;;;;;;;13.05;100.00;99235.27;109499;1253;73867;-66
2023/08/09 02:16:23;;;;;;;2.20;1.80;;;;;;;13.04;100.00;99231.51;109553;1254;68811;-66
2023/08/09 02:18:51;;;;;;;3.00;2.00;;;;;;;13.01;100.00;99231.98;109449;1254;72662;-66
2023/08/09 02:21:18;;;;;;;2.10;1.90;;;;;;;13.00;100.00;99229.10;109441;1253;60457;-66
2023/08/09 02:23:46;;;;;;;1.50;1.40;;;;;;;13.00;100.00;99232.84;109449;1253;58797;-66
2023/08/09 02:26:14;;;;;;;3.10;1.80;;;;;;;13.00;100.00;99233.36;109581;1251;74302;-66
2023/08/09 02:28:41;;;;;;;2.00;1.80;;;;;;;12.99;100.00;99233.35;109428;1254;68311;-65
2023/08/09 02:31:10;;;;;;;2.70;2.00;;;;;;;12.97;100.00;99233.08;109411;1257;72651;-66
2023/08/09 02:33:38;;;;;;;3.30;1.90;;;;;;;12.93;100.00;99235.11;109431;1258;60571;-65
2023/08/09 02:36:06;;;;;;;3.40;1.70;;;;;;;12.92;100.00;99228.69;109526;1254;58769;-66
2023/08/09 02:38:35;;;;;;;2.00;1.80;;;;;;;12.88;100.00;99229.52;109488;1254;72222;-66
2023/08/09 02:41:04;;;;;;;2.30;1.70;;;;;;;12.78;100.00;99232.17;109553;1252;66843;-66
2023/08/09 02:43:31;;;;;;;2.60;2.40;;;;;;;12.66;100.00;99229.29;109515;1253;72726;-66
2023/08/09 02:45:59;;;;;;;2.40;1.90;;;;;;;12.57;100.00;99230.21;109493;1256;60374;-66
2023/08/09 02:48:26;;;;;;;3.60;1.80;;;;;;;12.50;100.00;99234.56;109505;1253;58958;-66
2023/08/09 02:50:54;;;;;;;3.20;2.10;;;;;;;12.42;100.00;99239.90;109459;1254;72622;-66
2023/08/09 02:53:25;;;;;;;2.30;2.10;;;;;;;12.37;100.00;99237.21;109492;1252;66401;-66
2023/08/09 02:55:53;;;;;;;2.20;2.00;;;;;;;12.32;100.00;99238.80;109506;1254;72451;-69
2023/08/09 02:58:20;;;;;;;3.70;2.20;;;;;;;12.30;100.00;99242.34;109335;1254;61819;-67
2023/08/09 03:00:48;;;;;;;4.10;1.80;;;;;;;12.26;100.00;99251.89;109495;1254;58758;-66
2023/08/09 03:03:15;;;;;;;4.10;2.20;;;;;;;12.19;100.00;99250.21;109346;1253;73844;-66
2023/08/09 03:05:48;;;;;;;4.40;2.20;;;;;;;12.15;100.00;99253.24;109372;1254;67599;-66
2023/08/09 03:08:15;;;;;;;4.60;2.00;;;;;;;12.12;100.00;99258.89;109304;1254;72732;-67
2023/08/09 03:10:43;;;;;;;4.20;2.00;;;;;;;12.13;100.00;99260.05;109409;1254;63245;-66
2023/08/09 03:13:10;;;;;;;2.70;1.90;;;;;;;12.16;100.00;99261.86;109375;1253;59315;-66
2023/08/09 03:15:39;;;;;;;3.90;2.00;;;;;;;12.21;100.00;99263.83;109383;1251;73918;-66
2023/08/09 03:18:06;;;;;;;3.60;1.90;;;;;;;12.32;100.00;99264.12;109489;1254;66189;-67
2023/08/09 03:20:35;;;;;;;4.10;1.80;;;;;;;12.47;100.00;99268.19;109280;1256;71049;-67
2023/08/09 03:23:04;;;;;;;2.90;2.00;;;;;;;12.65;100.00;99273.58;109512;1252;60588;-66
2023/08/09 03:25:34;;;;;;;2.80;2.00;;;;;;;12.86;100.00;99273.03;109553;1254;59956;-67
2023/08/09 03:28:03;;;;;;;2.60;1.60;;;;;;;13.10;100.00;99273.45;109355;1254;72613;-67
2023/08/09 03:30:31;;;;;;;2.20;1.90;;;;;;;13.36;100.00;99278.27;109368;1253;67904;-66
2023/08/09 03:32:59;;;;;;;3.20;2.10;;;;;;;13.64;100.00;99272.60;109380;1254;72684;-66
2023/08/09 03:35:27;;;;;;;4.80;1.40;;;;;;;13.94;100.00;99267.14;109510;1253;60488;-66
2023/08/09 03:37:55;;;;;;;4.30;1.60;;;;;;;14.23;100.00;99268.73;109436;1253;58837;-66
2023/08/09 03:40:22;;;;;;;2.70;1.70;;;;;;;14.50;100.00;99264.88;109319;1252;73959;-65
2023/08/09 03:42:50;;;;;;;3.00;1.80;;;;;;;14.77;100.00;99262.79;109462;1253;66389;-67
2023/08/09 03:45:17;;;;;;;1.90;1.70;;;;;;;15.06;100.00;99264.32;109256;1252;72476;-67
2023/08/09 03:47:45;;;;;;;3.20;2.10;;;;;;;15.34;100.00;99265.33;109279;1253;60079;-66
2023/08/09 03:50:12;;;;;;;3.00;1.50;;;;;;;15.62;100.00;99261.14;109438;1253;58909;-66
2023/08/09 03:52:40;;;;;;;4.00;1.40;;;;;;;15.90;100.00;99261.19;109343;1254;73089;-67
2023/08/09 03:55:08;;;;;;;2.40;1.50;;;;;;;16.19;100.00;99257.81;109352;1254;67790;-67
2023/08/09 03:57:35;;;;;;;3.50;1.80;;;;;;;16.48;100.00;99259.30;109494;1254;71356;-67
2023/08/09 04:00:03;;;;;;;2.30;1.60;;;;;;;16.77;100.00;99263.95;109352;1252;60063;-65
2023/08/09 04:02:38;;;;;;;3.00;1.90;;;;;;;17.05;100.00;99260.11;109524;1254;60045;-67
2023/08/09 04:05:06;;;;;;;3.20;1.80;;;;;;;17.30;100.00;99260.14;109491;1252;73954;-67
2023/08/09 04:07:34;;;;;;;2.20;1.80;;;;;;;17.55;100.00;99263.09;109371;1252;67665;-67
2023/08/09 04:10:02;;;;;;;2.00;1.40;;;;;;;17.83;100.00;99261.02;109288;1254;71121;-66
2023/08/09 04:12:29;;;;;;;2.40;1.80;;;;;;;18.10;100.00;99261.71;109368;1258;60470;-66
2023/08/09 04:14:57;;;;;;;3.40;1.70;;;;;;;18.31;100.00;99262.70;109538;1253;59257;-67
2023/08/09 04:17:24;;;;;;;1.60;1.50;;;;;;;18.55;100.00;99260.66;109518;1254;72602;-67
2023/08/09 04:19:52;;;;;;;2.00;1.50;;;;;;;18.77;100.00;99255.73;109483;1254;66630;-66
2023/08/09 04:22:20;;;;;;;1.50;1.40;;;;;;;18.95;100.00;99254.98;109452;1253;72645;-66
2023/08/09 04:24:47;;;;;;;2.50;1.80;;;;;;;19.05;100.00;99252.30;109431;1254;60027;-65
2023/08/09 04:27:14;;;;;;;3.10;2.00;;;;;;;19.20;100.00;99249.96;109534;1252;58729;-65
2023/08/09 04:29:42;;;;;;;3.90;1.60;;;;;;;19.39;100.00;99252.15;109466;1254;75989;-66
2023/08/09 04:32:09;;;;;;;1.60;1.50;;;;;;;19.62;100.00;99243.71;109467;1254;66290;-65
2023/08/09 04:34:37;;;;;;;5.40;1.60;;;;;;;19.87;100.00;99239.96;109510;1253;72677;-65
2023/08/09 04:37:05;;;;;;;3.70;1.50;;;;;;;20.10;100.00;99243.34;109482;1254;58118;-67
2023/08/09 04:39:32;;;;;;;2.60;1.90;;;;;;;20.38;100.00;99241.05;109514;1254;60019;-67
2023/08/09 04:42:00;;;;;;;2.80;1.60;;;;;;;20.64;100.00;99244.17;109494;1253;73795;-65
2023/08/09 04:44:27;;;;;;;2.10;1.70;;;;;;;20.89;100.00;99246.98;109479;1254;65714;-65
2023/08/09 04:46:55;;;;;;;1.50;1.40;;;;;;;21.18;100.00;99248.02;109446;1253;72705;-65
2023/08/09 04:49:22;;;;;;;2.70;1.80;;;;;;;21.48;100.00;99253.55;109443;1254;60608;-65
2023/08/09 04:51:49;;;;;;;2.00;1.40;;;;;;;21.76;100.00;99252.96;109418;1253;58713;-65
2023/08/09 04:54:17;;;;;;;6.60;2.30;;;;;;;21.92;100.00;99252.48;109445;1253;73047;-65
2023/08/09 04:56:44;;;;;;;2.20;2.00;;;;;;;22.01;100.00;99258.83;109453;1253;67823;-65
2023/08/09 04:59:12;;;;;;;2.20;1.50;;;;;;;21.99;100.00;99256.81;109378;1253;71650;-65
2023/08/09 05:01:39;;;;;;;4.10;1.90;;;;;;;21.96;100.00;99255.79;109441;1253;60128;-65
2023/08/09 05:04:07;;;;;;;4.10;1.70;;;;;;;21.95;100.00;99259.35;109479;1253;58742;-64
2023/08/09 05:06:35;;;;;;;6.60;1.90;;;;;;;22.06;100.00;99258.00;109506;1254;74053;-66
2023/08/09 05:09:03;;;;;;;2.40;1.80;;;;;;;22.26;100.00;99251.27;109485;1254;67575;-66
2023/08/09 05:11:30;;;;;;;3.60;1.80;;;;;;;22.54;100.00;99250.33;109410;1254;72697;-65
2023/08/09 05:13:58;;;;;;;4.30;1.90;;;;;;;22.76;100.00;99246.76;109348;1252;218030;-65
2023/08/09 05:16:25;;;;;;;5.50;1.50;;;;;;;23.04;100.00;99248.14;109427;1253;60076;-64
2023/08/09 05:18:53;;;;;;;2.40;1.70;;;;;;;23.30;98.56;99252.42;109503;1253;72530;-66
2023/08/09 05:21:20;;;;;;;1.70;1.50;;;;;;;23.48;96.44;99253.30;109536;1252;67608;-65
2023/08/09 05:23:48;;;;;;;5.30;2.00;;;;;;;23.71;93.95;99257.01;109440;1253;72688;-65
2023/08/09 05:26:15;;;;;;;3.20;1.50;;;;;;;23.94;91.62;99257.92;109446;1254;60070;-65
2023/08/09 05:28:43;;;;;;;3.30;2.00;;;;;;;24.22;89.51;99262.69;109548;1252;58750;-65
2023/08/09 05:31:10;;;;;;;2.40;1.70;;;;;;;24.39;88.08;99266.25;109432;1252;73830;-65
2023/08/09 05:33:37;;;;;;;2.00;1.50;;;;;;;24.49;86.42;99268.15;109470;1252;66749;-65
2023/08/09 05:36:05;;;;;;;2.00;1.90;;;;;;;24.64;84.60;99268.91;109538;1253;71400;-66
2023/08/09 05:38:32;;;;;;;1.80;1.50;;;;;;;24.81;83.52;99266.27;109477;1253;58819;-66
2023/08/09 05:41:00;;;;;;;2.10;1.80;;;;;;;25.05;82.46;99267.16;109439;1253;60010;-65
2023/08/09 05:43:27;;;;;;;2.20;2.00;;;;;;;25.23;80.33;99269.10;109516;1253;73803;-65
2023/08/09 05:45:54;;;;;;;3.40;1.90;;;;;;;25.32;79.61;99273.17;109527;1253;67581;-65
2023/08/09 05:48:22;;;;;;;3.90;2.70;;;;;;;25.42;78.55;99272.77;109466;1253;72919;-65
2023/08/09 05:50:49;;;;;;;4.90;3.00;;;;;;;25.46;78.17;99273.70;109462;1254;61021;-66
2023/08/09 05:53:17;;;;;;;4.10;2.30;;;;;;;25.58;77.36;99274.82;109535;1252;58711;-66
2023/08/09 05:55:44;;;;;;;3.40;1.90;;;;;;;25.72;76.55;99275.58;109440;1253;74379;-66
2023/08/09 05:58:12;;;;;;;5.10;2.30;;;;;;;25.75;75.33;99273.12;109432;1252;67612;-67
2023/08/09 06:00:39;;;;;;;4.90;2.00;;;;;;;25.77;74.66;99272.84;109532;1253;73117;-66
2023/08/09 06:03:07;;;;;;;1.30;1.20;;;;;;;25.83;73.52;99271.41;109512;1253;60026;-65
2023/08/09 06:05:34;;;;;;;5.00;2.20;;;;;;;25.90;71.70;99275.23;109487;1253;60020;-64
2023/08/09 06:08:02;;;;;;;2.60;2.30;;;;;;;25.96;72.49;99278.39;109540;1252;73001;-66
2023/08/09 06:10:29;;;;;;;2.50;1.90;;;;;;;25.89;72.61;99277.23;109494;1252;66278;-66
2023/08/09 06:12:57;;;;;;;3.30;1.80;;;;;;;25.92;72.87;99282.09;109496;1252;72038;-66
2023/08/09 06:15:26;;;;;;;3.90;1.60;;;;;;;26.08;71.91;99286.98;109486;1253;60048;-66
2023/08/09 06:17:53;;;;;;;2.00;1.60;;;;;;;26.19;70.73;99281.48;109527;1253;60017;-66
2023/08/09 06:20:21;;;;;;;3.30;1.80;;;;;;;26.38;69.51;99278.41;109473;1253;73015;-67
2023/08/09 06:22:49;;;;;;;1.80;1.60;;;;;;;26.64;67.65;99277.88;109493;1253;67876;-66
2023/08/09 06:25:16;;;;;;;6.30;1.90;;;;;;;26.85;65.97;99277.70;109444;1253;72768;-66
2023/08/09 06:27:44;;;;;;;2.20;1.50;;;;;;;27.07;64.28;99275.14;109464;1254;58799;-66
2023/08/09 06:30:11;;;;;;;2.90;1.70;;;;;;;27.20;61.83;99271.50;109495;1253;58820;-65
2023/08/09 06:32:39;;;;;;;2.70;1.50;;;;;;;27.37;59.49;99272.60;109543;1253;72916;-67
2023/08/09 06:35:09;;;;;;;2.20;1.60;;;;;;;27.49;58.16;99271.80;109453;1253;66878;-66
2023/08/09 06:37:36;;;;;;;1.60;1.40;;;;;;;27.48;57.26;99268.00;109497;1253;72683;-67
2023/08/09 06:40:08;;;;;;;1.90;1.40;;;;;;;27.53;56.60;99266.35;109458;1253;58747;-65
2023/08/09 06:42:35;;;;;;;1.70;1.30;;;;;;;27.56;54.32;99264.59;109528;1252;60535;-66
2023/08/09 06:45:04;;;;;;;2.30;1.50;;;;;;;27.53;51.98;99264.34;109367;1253;74037;-64
2023/08/09 06:47:32;;;;;;;1.90;1.70;;;;;;;27.58;52.32;99266.65;109508;1253;69829;-65
2023/08/09 06:50:00;;;;;;;1.30;1.20;;;;;;;27.68;52.98;99263.45;109418;1253;72685;-65
2023/08/09 06:52:28;;;;;;;1.30;1.20;;;;;;;27.87;52.47;99261.96;109457;1253;60190;-67
2023/08/09 06:54:55;;;;;;;2.20;2.00;;;;;;;28.07;51.35;99263.48;109445;1253;58716;-68
2023/08/09 06:57:25;;;;;;;1.60;1.50;;;;;;;28.18;49.91;99265.77;109527;1253;73835;-67
2023/08/09 06:59:53;;;;;;;2.00;1.70;;;;;;;28.13;50.29;99268.45;109518;1252;67062;-67
2023/08/09 07:02:21;;;;;;;1.90;1.50;;;;;;;28.20;49.69;99269.90;109472;1253;70581;-66
2023/08/09 07:04:54;;;;;;;2.10;1.60;;;;;;;28.35;49.46;99275.06;109531;1253;60145;-65
2023/08/09 07:07:22;;;;;;;1.60;1.40;;;;;;;28.47;48.79;99273.48;109507;1253;60548;-65
2023/08/09 07:09:52;;;;;;;3.00;1.60;;;;;;;28.57;48.98;99274.78;109485;1253;73933;-66
2023/08/09 07:12:20;;;;;;;1.90;1.00;;;;;;;28.60;47.05;99274.58;109510;1252;67546;-65
2023/08/09 07:14:47;;;;;;;2.60;1.70;;;;;;;28.64;45.28;99273.59;109484;1253;71394;-66
2023/08/09 07:17:14;;;;;;;2.70;1.40;;;;;;;28.71;44.66;99272.02;109411;1253;59155;-66
2023/08/09 07:19:42;;;;;;;2.50;1.30;;;;;;;28.89;44.79;99272.09;109558;1253;60020;-66
2023/08/09 07:22:09;;;;;;;2.70;1.50;;;;;;;29.08;44.75;99268.77;109545;1252;73820;-65
2023/08/09 07:24:37;;;;;;;1.70;1.40;;;;;;;29.19;44.30;99269.05;109496;1252;67305;-65
2023/08/09 07:27:04;;;;;;;5.10;1.30;;;;;;;29.13;43.92;99270.88;109457;1253;72763;-65
2023/08/09 07:29:31;;;;;;;2.40;1.30;;;;;;;29.10;44.04;99272.40;109350;1253;58814;-66
2023/08/09 07:32:00;;;;;;;2.00;1.30;;;;;;;29.10;43.77;99275.69;109565;1253;60000;-66
2023/08/09 07:34:28;;;;;;;1.60;1.30;;;;;;;29.09;42.96;99277.34;109580;1252;73821;-65
2023/08/09 07:36:56;;;;;;;4.00;1.50;;;;;;;29.07;42.79;99269.23;109408;1253;66800;-66
2023/08/09 07:39:25;;;;;;;5.50;1.90;;;;;;;29.12;43.32;99267.44;109584;1252;71413;-58
2023/08/09 07:41:52;;;;;;;1.80;1.50;;;;;;;29.34;43.76;99269.55;109470;1252;60129;-59
2023/08/09 07:44:19;;;;;;;3.40;1.50;;;;;;;29.50;43.14;99271.77;109500;1253;58718;-58
2023/08/09 07:46:47;;;;;;;1.80;1.50;;;;;;;29.55;43.56;99264.84;109499;1253;72614;-58
2023/08/09 07:49:14;;;;;;;2.00;1.60;;;;;;;29.63;42.13;99265.14;109511;1252;67605;-60
2023/08/09 07:51:42;;;;;;;2.00;1.50;;;;;;;29.36;42.02;99266.11;109434;1253;72368;-60
2023/08/09 07:54:09;;;;;;;2.20;1.80;;;;;;;28.92;42.32;99265.16;109411;1253;60583;-65
2023/08/09 07:56:37;;;;;;;1.40;1.30;;;;;;;28.65;42.66;99269.89;109478;1253;58728;-57
2023/08/09 07:59:05;;;;;;;1.60;1.50;;;;;;;28.44;43.32;99267.02;109474;1252;73847;-59
2023/08/09 08:01:32;;;;;;;1.50;1.40;;;;;;;28.52;44.17;99266.86;109469;1253;67726;-60
2023/08/09 08:04:00;;;;;;;2.50;1.30;;;;;;;28.66;43.37;99268.73;109563;1252;71540;-58
2023/08/09 08:06:27;;;;;;;2.80;1.30;;;;;;;28.55;43.28;99270.00;109386;1253;59306;-64
2023/08/09 08:08:56;;;;;;;3.80;1.40;;;;;;;28.38;43.36;99269.16;109471;1252;59996;-65
2023/08/09 08:11:23;;;;;;;1.20;1.10;;;;;;;28.38;43.19;99265.98;109486;1252;73844;-64
2023/08/09 08:13:51;;;;;;;1.30;1.20;;;;;;;28.52;42.68;99270.85;109491;1253;66288;-65
2023/08/09 08:16:20;;;;;;;1.50;1.40;;;;;;;28.55;41.21;99267.52;109414;1252;71932;-65
2023/08/09 08:18:47;;;;;;;1.70;1.40;;;;;;;28.59;40.92;99270.34;109530;1253;60066;-65
2023/08/09 08:21:14;;;;;;;2.00;1.20;;;;;;;28.69;40.65;99268.59;109386;1253;58765;-65
2023/08/09 08:23:42;;;;;;;1.40;1.30;;;;;;;28.85;39.87;99268.77;109492;1253;73971;-65
2023/08/09 08:26:09;;;;;;;1.30;1.10;;;;;;;28.97;39.68;99264.92;109503;1253;66790;-66
2023/08/09 08:28:37;;;;;;;1.00;1.00;;;;;;;29.06;39.98;99257.45;109512;1252;71379;-66
2023/08/09 08:31:05;;;;;;;2.50;1.30;;;;;;;29.17;39.42;99263.81;109413;1253;60695;-66
2023/08/09 08:33:32;;;;;;;0.90;0.70;;;;;;;29.25;39.26;99260.23;109484;1252;59980;-66
2023/08/09 08:36:00;;;;;;;1.50;1.10;;;;;;;29.23;38.32;99267.68;109497;1253;73813;-66
2023/08/09 08:38:47;;;;;;;1.00;1.00;;;;;;;28.88;38.12;99265.27;109420;1253;67020;-66
2023/08/09 08:41:15;;;;;;;1.80;1.20;;;;;;;28.65;39.49;99269.23;109429;1252;72697;-66
2023/08/09 08:43:44;;;;;;;1.20;1.10;;;;;;;28.80;38.79;99265.92;109472;1252;60033;-66
2023/08/09 08:46:14;;;;;;;2.00;1.10;;;;;;;29.08;38.76;99265.88;109458;1252;58717;-66
2023/08/09 08:48:47;;;;;;;1.30;1.20;;;;;;;29.34;38.71;99266.65;109479;1252;73828;-66
2023/08/09 08:51:14;;;;;;;2.20;1.20;;;;;;;29.44;37.49;99267.00;109549;1253;66443;-66
2023/08/09 08:53:42;;;;;;;5.00;1.40;;;;;;;29.55;37.19;99270.05;109436;1253;71413;-66
2023/08/09 08:56:09;;;;;;;1.80;1.20;;;;;;;29.59;37.50;99271.69;109260;1253;58816;-66
2023/08/09 08:58:37;;;;;;;1.70;1.30;;;;;;;29.57;36.54;99270.11;109351;1256;59156;-66
2023/08/09 09:01:04;;;;;;;1.30;1.10;;;;;;;29.60;36.57;99272.54;109500;1253;73762;-66
2023/08/09 09:03:32;;;;;;;3.90;1.30;;;;;;;29.82;36.48;99270.64;109459;1253;67598;-67
2023/08/09 09:05:59;;;;;;;3.50;1.20;;;;;;;30.02;36.40;99273.15;109465;1253;72659;-66
2023/08/09 09:08:26;;;;;;;1.10;1.00;;;;;;;30.21;36.15;99275.14;109474;1253;60167;-66
2023/08/09 09:10:54;;;;;;;1.10;1.00;;;;;;;30.40;35.17;99281.34;109501;1253;60016;-66
2023/08/09 09:13:26;;;;;;;1.50;1.10;;;;;;;30.45;34.56;99282.90;109491;1253;72604;-67
2023/08/09 09:15:54;;;;;;;1.10;1.00;;;;;;;30.47;34.29;99280.15;109474;1252;68254;-67
2023/08/09 09:18:22;;;;;;;2.70;1.20;;;;;;;30.40;33.61;99278.63;109473;1253;72768;-66
2023/08/09 09:20:49;;;;;;;0.80;0.80;;;;;;;30.31;33.29;99274.84;109446;1253;60111;-67
2023/08/09 09:23:27;;;;;;;1.10;1.00;;;;;;;30.14;33.49;99271.40;109568;1253;60033;-66
2023/08/09 09:26:08;;;;;;;1.00;0.90;;;;;;;30.09;34.69;99272.80;109422;1252;74058;-67
2023/08/09 09:28:41;;;;;;;1.60;1.10;;;;;;;30.24;32.84;99272.35;109455;1252;66431;-67
2023/08/09 09:31:10;;;;;;;3.30;0.90;;;;;;;30.42;31.97;99272.34;109461;1252;75217;-66
2023/08/09 09:33:39;;;;;;;2.40;1.00;;;;;;;30.69;32.35;99271.70;109429;1253;58079;-65
2023/08/09 09:36:10;;;;;;;1.10;1.00;;;;;;;30.91;31.88;99268.66;109529;1252;60072;-67
2023/08/09 09:38:38;;;;;;;1.60;1.20;;;;;;;30.99;31.25;99264.31;109509;1253;74006;-66
2023/08/09 09:41:08;;;;;;;1.00;1.00;;;;;;;30.95;30.87;99270.88;109437;1254;67618;-66
2023/08/09 09:43:41;;;;;;;1.20;1.10;;;;;;;30.88;31.29;99273.75;109514;1251;72267;-66
2023/08/09 09:46:19;;;;;;;1.20;1.10;;;;;;;30.80;31.59;99268.60;109451;1253;58779;-66
2023/08/09 09:49:03;;;;;;;1.30;1.20;;;;;;;30.58;32.41;99265.65;109476;1252;60041;-65
2023/08/09 09:51:31;;;;;;;1.40;1.10;;;;;;;30.87;33.15;99262.19;109547;1252;74632;-66
2023/08/09 09:53:59;;;;;;;1.10;1.00;;;;;;;31.31;33.88;99262.79;109558;1253;67900;-66
2023/08/09 09:56:26;;;;;;;0.80;0.80;;;;;;;31.72;32.87;99260.31;109476;1252;71575;-66
2023/08/09 09:58:53;;;;;;;0.90;0.80;;;;;;;31.85;31.93;99256.09;109475;1252;60047;-66
2023/08/09 10:01:22;;;;;;;1.30;1.20;;;;;;;31.29;32.22;99257.61;109496;1253;60071;-66
2023/08/09 10:03:53;;;;;;;0.80;0.70;;;;;;;30.95;32.54;99255.50;109504;1253;73051;-66
2023/08/09 10:06:22;;;;;;;0.80;0.70;;;;;;;31.24;32.57;99249.54;109369;1252;68996;-66
2023/08/09 10:08:50;;;;;;;1.00;0.80;;;;;;;31.61;31.98;99246.02;109513;1252;71052;-67
2023/08/09 10:11:18;;;;;;;1.00;0.80;;;;;;;31.81;31.32;99244.41;109480;1253;58974;-65
2023/08/09 10:13:46;;;;;;;2.10;0.90;;;;;;;31.89;31.14;99243.39;109363;1253;58896;-66
2023/08/09 10:16:13;;;;;;;0.90;0.80;;;;;;;32.01;31.20;99245.84;109520;1253;73786;-66
2023/08/09 10:18:43;;;;;;;1.20;1.00;;;;;;;31.96;31.02;99244.54;109376;1252;67579;-66
2023/08/09 10:21:11;;;;;;;2.20;1.00;;;;;;;31.70;31.29;99246.42;109394;1252;71390;-67
2023/08/09 10:23:39;;;;;;;1.70;1.00;;;;;;;30.84;32.04;99248.29;109326;1252;60029;-65
2023/08/09 10:26:06;;;;;;;1.20;1.10;;;;;;;30.33;33.37;99246.52;109479;1252;58832;-66
2023/08/09 10:28:45;;;;;;;1.00;1.00;;;;;;;29.96;33.31;99250.44;109193;1253;74697;-67
2023/08/09 10:31:15;;;;;;;1.10;0.70;;;;;;;29.42;33.47;99247.23;109500;1252;67609;-67
2023/08/09 10:34:07;;;;;;;0.80;0.80;;;;;;;28.80;34.33;99241.95;109505;1253;72738;-66
2023/08/09 10:36:35;;;;;;;2.00;0.80;;;;;;;28.34;35.42;99237.46;109476;1252;60102;-66
2023/08/09 10:39:10;;;;;;;1.50;1.00;;;;;;;27.97;36.24;99241.20;109477;1252;60061;-66
2023/08/09 10:41:37;;;;;;;1.50;0.90;;;;;;;27.61;37.07;99240.39;109466;1252;74679;-67
2023/08/09 10:44:05;;;;;;;2.00;0.80;;;;;;;27.32;36.88;99242.42;109343;1253;66309;-66
2023/08/09 10:46:33;;;;;;;0.70;0.70;;;;;;;27.07;36.80;99242.48;109523;1252;72765;-67
2023/08/09 10:49:00;;;;;;;0.80;0.80;;;;;;;26.95;37.31;99243.70;109526;1252;58948;-66
2023/08/09 10:51:28;;;;;;;3.20;1.00;;;;;;;26.85;37.67;99241.58;109472;1252;59596;-65
2023/08/09 10:53:55;;;;;;;1.60;1.20;;;;;;;26.61;38.78;99237.78;109429;1253;74731;-66
2023/08/09 10:56:42;;;;;;;1.30;1.00;;;;;;;26.46;40.12;99241.85;109518;1253;66804;-66
2023/08/09 10:59:27;;;;;;;;;;;;;;;26.36;41.99;99238.34;109472;1252;72714;-66
2023/08/09 11:01:55;;;;;;;1.90;1.10;;;;;;;26.30;42.98;99233.30;109535;1253;58865;-66
2023/08/09 11:04:22;;;;;;;3.20;1.10;;;;;;;26.31;42.03;99233.07;109524;1253;58931;-66
2023/08/09 11:06:50;;;;;;;1.10;0.90;;;;;;;26.25;40.86;99239.09;109540;1252;74767;-66
2023/08/09 11:09:21;;;;;;;1.20;0.80;;;;;;;26.09;40.19;99234.05;109526;1253;67389;-66
2023/08/09 11:11:49;;;;;;;1.40;1.30;;;;;;;25.93;40.53;99236.15;109511;1253;72400;-66
2023/08/09 11:14:18;;;;;;;3.10;1.60;;;;;;;25.77;40.97;99237.54;109426;1253;60090;-67
2023/08/09 11:16:46;;;;;;;2.90;1.30;;;;;;;25.58;41.02;99235.96;109480;1253;59008;-67
2023/08/09 11:19:14;;;;;;;1.20;1.10;;;;;;;25.52;41.34;99236.92;109529;1252;74745;-66
2023/08/09 11:21:59;;;;;;;1.70;1.00;;;;;;;25.53;41.65;99234.39;109461;1251;67651;-65
2023/08/09 11:24:27;;;;;;;3.10;0.70;;;;;;;25.49;41.51;99239.63;109451;1253;71975;-67
2023/08/09 11:26:56;;;;;;;1.40;1.30;;;;;;;25.43;42.07;99234.10;109504;1253;58944;-67